sensor_id;sensor_type;location;lat;lon;timestamp;P1;durP1;ratioP1;P2;durP2;ratioP2
38693;SDS011;24447;43.460;25.744;2023-06-26T00:01:19;14.57;;;6.38;;
38693;SDS011;24447;43.460;25.744;2023-06-26T00:03:46;14.48;;;6.13;;
38693;SDS011;24447;43.460;25.744;2023-06-26T00:06:12;17.02;;;7.03;;
38693;SDS011;24447;43.460;25.744;2023-06-26T00:08:38;16.42;;;7.15;;
38693;SDS011;24447;43.460;25.744;2023-06-26T00:11:04;16.00;;;6.40;;
38693;SDS011;24447;43.460;25.744;2023-06-26T00:13:31;11.75;;;6.18;;
38693;SDS011;24447;43.460;25.744;2023-06-26T00:15:57;14.35;;;6.07;;
38693;SDS011;24447;43.460;25.744;2023-06-26T00:18:23;13.20;;;6.15;;
38693;SDS011;24447;43.460;25.744;2023-06-26T00:20:49;15.80;;;6.60;;
38693;SDS011;24447;43.460;25.744;2023-06-26T00:23:18;18.88;;;6.53;;
38693;SDS011;24447;43.460;25.744;2023-06-26T00:25:44;16.13;;;7.25;;
38693;SDS011;24447;43.460;25.744;2023-06-26T00:28:09;13.90;;;6.55;;
38693;SDS011;24447;43.460;25.744;2023-06-26T00:30:36;15.18;;;6.72;;
38693;SDS011;24447;43.460;25.744;2023-06-26T00:33:01;17.80;;;7.45;;
38693;SDS011;24447;43.460;25.744;2023-06-26T00:35:27;17.30;;;7.25;;
38693;SDS011;24447;43.460;25.744;2023-06-26T00:37:53;16.92;;;7.40;;
38693;SDS011;24447;43.460;25.744;2023-06-26T00:40:19;14.65;;;7.15;;
38693;SDS011;24447;43.460;25.744;2023-06-26T00:42:45;20.23;;;7.43;;
38693;SDS011;24447;43.460;25.744;2023-06-26T00:45:11;21.80;;;8.18;;
38693;SDS011;24447;43.460;25.744;2023-06-26T00:47:37;19.77;;;8.05;;
38693;SDS011;24447;43.460;25.744;2023-06-26T00:50:03;23.77;;;8.93;;
38693;SDS011;24447;43.460;25.744;2023-06-26T00:52:30;21.73;;;9.23;;
38693;SDS011;24447;43.460;25.744;2023-06-26T00:54:56;19.65;;;7.95;;
38693;SDS011;24447;43.460;25.744;2023-06-26T00:57:22;18.30;;;8.45;;
38693;SDS011;24447;43.460;25.744;2023-06-26T00:59:49;18.35;;;8.23;;
38693;SDS011;24447;43.460;25.744;2023-06-26T01:02:15;20.50;;;8.27;;
38693;SDS011;24447;43.460;25.744;2023-06-26T01:04:46;20.77;;;8.93;;
38693;SDS011;24447;43.460;25.744;2023-06-26T01:07:15;21.40;;;9.40;;
38693;SDS011;24447;43.460;25.744;2023-06-26T01:09:44;21.17;;;9.57;;
38693;SDS011;24447;43.460;25.744;2023-06-26T01:12:11;31.35;;;10.38;;
38693;SDS011;24447;43.460;25.744;2023-06-26T01:14:37;22.95;;;10.25;;
38693;SDS011;24447;43.460;25.744;2023-06-26T01:17:03;22.70;;;10.35;;
38693;SDS011;24447;43.460;25.744;2023-06-26T01:19:30;20.95;;;10.40;;
38693;SDS011;24447;43.460;25.744;2023-06-26T01:30:08;24.15;;;11.25;;
38693;SDS011;24447;43.460;25.744;2023-06-26T01:32:34;23.83;;;10.68;;
38693;SDS011;24447;43.460;25.744;2023-06-26T01:35:01;24.10;;;12.02;;
38693;SDS011;24447;43.460;25.744;2023-06-26T01:37:28;30.25;;;12.32;;
38693;SDS011;24447;43.460;25.744;2023-06-26T01:39:54;24.13;;;11.60;;
38693;SDS011;24447;43.460;25.744;2023-06-26T01:42:20;25.77;;;11.95;;
38693;SDS011;24447;43.460;25.744;2023-06-26T01:44:46;29.50;;;10.95;;
38693;SDS011;24447;43.460;25.744;2023-06-26T01:47:14;27.20;;;12.25;;
38693;SDS011;24447;43.460;25.744;2023-06-26T01:52:35;31.90;;;12.30;;
38693;SDS011;24447;43.460;25.744;2023-06-26T01:57:52;27.35;;;12.63;;
38693;SDS011;24447;43.460;25.744;2023-06-26T02:00:21;24.48;;;11.75;;
38693;SDS011;24447;43.460;25.744;2023-06-26T02:02:47;24.67;;;11.50;;
38693;SDS011;24447;43.460;25.744;2023-06-26T02:05:13;26.58;;;12.23;;
38693;SDS011;24447;43.460;25.744;2023-06-26T02:07:40;29.92;;;11.43;;
38693;SDS011;24447;43.460;25.744;2023-06-26T02:10:06;25.73;;;12.27;;
38693;SDS011;24447;43.460;25.744;2023-06-26T02:12:32;27.70;;;13.60;;
38693;SDS011;24447;43.460;25.744;2023-06-26T02:14:59;36.55;;;12.98;;
38693;SDS011;24447;43.460;25.744;2023-06-26T02:17:25;26.67;;;13.02;;
38693;SDS011;24447;43.460;25.744;2023-06-26T02:19:50;28.23;;;11.98;;
38693;SDS011;24447;43.460;25.744;2023-06-26T02:22:16;29.83;;;14.10;;
38693;SDS011;24447;43.460;25.744;2023-06-26T02:24:43;30.10;;;12.25;;
38693;SDS011;24447;43.460;25.744;2023-06-26T02:27:09;29.33;;;13.35;;
38693;SDS011;24447;43.460;25.744;2023-06-26T02:29:35;27.60;;;13.77;;
38693;SDS011;24447;43.460;25.744;2023-06-26T02:32:01;25.42;;;12.93;;
38693;SDS011;24447;43.460;25.744;2023-06-26T02:34:27;29.15;;;13.15;;
38693;SDS011;24447;43.460;25.744;2023-06-26T02:36:53;28.85;;;12.75;;
38693;SDS011;24447;43.460;25.744;2023-06-26T02:39:20;30.00;;;12.25;;
38693;SDS011;24447;43.460;25.744;2023-06-26T02:41:46;28.45;;;13.10;;
38693;SDS011;24447;43.460;25.744;2023-06-26T02:44:12;28.13;;;12.82;;
38693;SDS011;24447;43.460;25.744;2023-06-26T02:46:39;32.47;;;13.25;;
38693;SDS011;24447;43.460;25.744;2023-06-26T02:49:05;28.45;;;13.90;;
38693;SDS011;24447;43.460;25.744;2023-06-26T02:51:32;27.27;;;12.68;;
38693;SDS011;24447;43.460;25.744;2023-06-26T02:53:58;28.42;;;13.15;;
38693;SDS011;24447;43.460;25.744;2023-06-26T02:56:25;32.10;;;14.48;;
38693;SDS011;24447;43.460;25.744;2023-06-26T02:58:57;26.55;;;12.68;;
38693;SDS011;24447;43.460;25.744;2023-06-26T03:01:23;29.40;;;12.57;;
38693;SDS011;24447;43.460;25.744;2023-06-26T03:03:49;28.80;;;14.00;;
38693;SDS011;24447;43.460;25.744;2023-06-26T03:06:17;28.02;;;12.68;;
38693;SDS011;24447;43.460;25.744;2023-06-26T03:08:43;30.58;;;12.50;;
38693;SDS011;24447;43.460;25.744;2023-06-26T03:11:09;25.48;;;11.65;;
38693;SDS011;24447;43.460;25.744;2023-06-26T03:13:35;25.42;;;11.85;;
38693;SDS011;24447;43.460;25.744;2023-06-26T03:16:02;31.20;;;12.07;;
38693;SDS011;24447;43.460;25.744;2023-06-26T03:18:31;28.95;;;11.48;;
38693;SDS011;24447;43.460;25.744;2023-06-26T03:20:57;24.25;;;11.88;;
38693;SDS011;24447;43.460;25.744;2023-06-26T03:23:23;26.25;;;12.48;;
38693;SDS011;24447;43.460;25.744;2023-06-26T03:25:50;20.60;;;7.90;;
38693;SDS011;24447;43.460;25.744;2023-06-26T03:28:16;24.60;;;8.38;;
38693;SDS011;24447;43.460;25.744;2023-06-26T03:30:42;18.42;;;6.80;;
38693;SDS011;24447;43.460;25.744;2023-06-26T03:33:08;20.30;;;7.90;;
38693;SDS011;24447;43.460;25.744;2023-06-26T03:35:34;20.88;;;8.82;;
38693;SDS011;24447;43.460;25.744;2023-06-26T03:38:00;23.10;;;7.88;;
38693;SDS011;24447;43.460;25.744;2023-06-26T03:40:27;18.40;;;8.93;;
38693;SDS011;24447;43.460;25.744;2023-06-26T03:42:53;24.10;;;7.85;;
38693;SDS011;24447;43.460;25.744;2023-06-26T03:45:19;19.58;;;8.38;;
38693;SDS011;24447;43.460;25.744;2023-06-26T03:47:45;19.25;;;8.45;;
38693;SDS011;24447;43.460;25.744;2023-06-26T03:50:17;29.00;;;8.65;;
38693;SDS011;24447;43.460;25.744;2023-06-26T03:52:44;28.77;;;9.68;;
38693;SDS011;24447;43.460;25.744;2023-06-26T03:55:10;20.23;;;7.90;;
38693;SDS011;24447;43.460;25.744;2023-06-26T03:57:36;17.40;;;7.93;;
38693;SDS011;24447;43.460;25.744;2023-06-26T04:00:02;17.95;;;7.82;;
38693;SDS011;24447;43.460;25.744;2023-06-26T04:02:33;24.77;;;9.35;;
38693;SDS011;24447;43.460;25.744;2023-06-26T04:05:00;23.45;;;8.45;;
38693;SDS011;24447;43.460;25.744;2023-06-26T04:07:26;22.02;;;8.30;;
38693;SDS011;24447;43.460;25.744;2023-06-26T04:09:52;19.05;;;7.82;;
38693;SDS011;24447;43.460;25.744;2023-06-26T04:12:18;19.45;;;7.68;;
38693;SDS011;24447;43.460;25.744;2023-06-26T04:14:46;19.30;;;6.85;;
38693;SDS011;24447;43.460;25.744;2023-06-26T04:17:12;22.60;;;7.63;;
38693;SDS011;24447;43.460;25.744;2023-06-26T04:19:38;18.17;;;7.13;;
38693;SDS011;24447;43.460;25.744;2023-06-26T04:22:04;12.93;;;6.45;;
38693;SDS011;24447;43.460;25.744;2023-06-26T04:24:30;15.13;;;6.68;;
38693;SDS011;24447;43.460;25.744;2023-06-26T04:26:56;18.65;;;6.78;;
38693;SDS011;24447;43.460;25.744;2023-06-26T04:29:22;17.75;;;7.68;;
38693;SDS011;24447;43.460;25.744;2023-06-26T04:31:52;23.02;;;7.70;;
38693;SDS011;24447;43.460;25.744;2023-06-26T04:34:26;14.15;;;6.38;;
38693;SDS011;24447;43.460;25.744;2023-06-26T04:36:53;19.30;;;8.02;;
38693;SDS011;24447;43.460;25.744;2023-06-26T04:39:19;18.80;;;6.93;;
38693;SDS011;24447;43.460;25.744;2023-06-26T04:41:45;21.15;;;7.03;;
38693;SDS011;24447;43.460;25.744;2023-06-26T04:44:12;15.95;;;6.00;;
38693;SDS011;24447;43.460;25.744;2023-06-26T04:46:38;15.85;;;7.13;;
38693;SDS011;24447;43.460;25.744;2023-06-26T04:49:08;16.42;;;7.07;;
38693;SDS011;24447;43.460;25.744;2023-06-26T04:51:34;15.57;;;6.15;;
38693;SDS011;24447;43.460;25.744;2023-06-26T04:54:05;19.05;;;7.00;;
38693;SDS011;24447;43.460;25.744;2023-06-26T04:56:32;14.50;;;6.85;;
38693;SDS011;24447;43.460;25.744;2023-06-26T04:58:58;24.17;;;8.45;;
38693;SDS011;24447;43.460;25.744;2023-06-26T05:01:24;15.88;;;6.50;;
38693;SDS011;24447;43.460;25.744;2023-06-26T05:03:54;17.90;;;6.68;;
38693;SDS011;24447;43.460;25.744;2023-06-26T05:06:21;14.35;;;6.18;;
38693;SDS011;24447;43.460;25.744;2023-06-26T05:08:46;17.35;;;6.25;;
38693;SDS011;24447;43.460;25.744;2023-06-26T05:11:12;18.10;;;7.35;;
38693;SDS011;24447;43.460;25.744;2023-06-26T05:13:38;12.30;;;5.55;;
38693;SDS011;24447;43.460;25.744;2023-06-26T05:16:05;20.38;;;6.75;;
38693;SDS011;24447;43.460;25.744;2023-06-26T05:18:33;15.63;;;6.57;;
38693;SDS011;24447;43.460;25.744;2023-06-26T05:21:00;18.25;;;6.45;;
38693;SDS011;24447;43.460;25.744;2023-06-26T05:23:26;13.45;;;5.88;;
38693;SDS011;24447;43.460;25.744;2023-06-26T05:25:52;27.85;;;7.88;;
38693;SDS011;24447;43.460;25.744;2023-06-26T05:28:19;17.63;;;6.65;;
38693;SDS011;24447;43.460;25.744;2023-06-26T05:30:45;24.02;;;8.13;;
38693;SDS011;24447;43.460;25.744;2023-06-26T05:33:12;27.85;;;6.85;;
38693;SDS011;24447;43.460;25.744;2023-06-26T05:35:39;21.58;;;7.68;;
38693;SDS011;24447;43.460;25.744;2023-06-26T05:38:05;17.10;;;7.30;;
38693;SDS011;24447;43.460;25.744;2023-06-26T05:40:31;21.80;;;7.13;;
38693;SDS011;24447;43.460;25.744;2023-06-26T05:42:59;21.90;;;6.70;;
38693;SDS011;24447;43.460;25.744;2023-06-26T05:45:25;18.80;;;6.05;;
38693;SDS011;24447;43.460;25.744;2023-06-26T05:47:51;20.52;;;6.35;;
38693;SDS011;24447;43.460;25.744;2023-06-26T05:50:17;24.95;;;6.45;;
38693;SDS011;24447;43.460;25.744;2023-06-26T05:52:44;17.10;;;7.07;;
38693;SDS011;24447;43.460;25.744;2023-06-26T05:55:11;28.08;;;7.28;;
38693;SDS011;24447;43.460;25.744;2023-06-26T05:57:37;18.73;;;6.93;;
38693;SDS011;24447;43.460;25.744;2023-06-26T06:00:04;16.98;;;6.03;;
38693;SDS011;24447;43.460;25.744;2023-06-26T06:02:35;13.30;;;6.88;;
38693;SDS011;24447;43.460;25.744;2023-06-26T06:05:02;25.63;;;7.05;;
38693;SDS011;24447;43.460;25.744;2023-06-26T06:07:28;19.75;;;6.82;;
38693;SDS011;24447;43.460;25.744;2023-06-26T06:09:54;13.75;;;5.70;;
38693;SDS011;24447;43.460;25.744;2023-06-26T06:12:20;17.52;;;6.32;;
38693;SDS011;24447;43.460;25.744;2023-06-26T06:14:46;16.98;;;5.88;;
38693;SDS011;24447;43.460;25.744;2023-06-26T06:17:12;23.55;;;6.40;;
38693;SDS011;24447;43.460;25.744;2023-06-26T06:19:38;15.13;;;6.13;;
38693;SDS011;24447;43.460;25.744;2023-06-26T06:22:04;20.52;;;6.45;;
38693;SDS011;24447;43.460;25.744;2023-06-26T06:24:30;20.10;;;6.72;;
38693;SDS011;24447;43.460;25.744;2023-06-26T06:26:56;19.75;;;5.72;;
38693;SDS011;24447;43.460;25.744;2023-06-26T06:29:22;17.08;;;6.75;;
38693;SDS011;24447;43.460;25.744;2023-06-26T06:31:47;11.18;;;5.65;;
38693;SDS011;24447;43.460;25.744;2023-06-26T06:34:13;29.27;;;6.72;;
38693;SDS011;24447;43.460;25.744;2023-06-26T06:36:39;17.08;;;6.75;;
38693;SDS011;24447;43.460;25.744;2023-06-26T06:39:05;17.83;;;6.88;;
38693;SDS011;24447;43.460;25.744;2023-06-26T06:41:31;20.63;;;7.60;;
38693;SDS011;24447;43.460;25.744;2023-06-26T06:43:57;17.75;;;6.75;;
38693;SDS011;24447;43.460;25.744;2023-06-26T06:46:23;23.70;;;6.70;;
38693;SDS011;24447;43.460;25.744;2023-06-26T06:48:52;15.80;;;6.75;;
38693;SDS011;24447;43.460;25.744;2023-06-26T06:51:18;14.05;;;6.63;;
38693;SDS011;24447;43.460;25.744;2023-06-26T06:53:44;11.85;;;5.82;;
38693;SDS011;24447;43.460;25.744;2023-06-26T06:56:10;17.70;;;6.53;;
38693;SDS011;24447;43.460;25.744;2023-06-26T06:58:35;24.48;;;5.72;;
38693;SDS011;24447;43.460;25.744;2023-06-26T07:01:01;13.35;;;5.88;;
38693;SDS011;24447;43.460;25.744;2023-06-26T07:03:28;13.15;;;5.00;;
38693;SDS011;24447;43.460;25.744;2023-06-26T07:05:54;12.77;;;5.70;;
38693;SDS011;24447;43.460;25.744;2023-06-26T07:08:21;18.60;;;7.18;;
38693;SDS011;24447;43.460;25.744;2023-06-26T07:10:47;18.77;;;6.65;;
38693;SDS011;24447;43.460;25.744;2023-06-26T07:13:13;15.48;;;6.68;;
38693;SDS011;24447;43.460;25.744;2023-06-26T07:15:39;17.33;;;6.63;;
38693;SDS011;24447;43.460;25.744;2023-06-26T07:18:04;22.10;;;7.32;;
38693;SDS011;24447;43.460;25.744;2023-06-26T07:20:30;15.98;;;6.45;;
38693;SDS011;24447;43.460;25.744;2023-06-26T07:22:56;17.80;;;6.35;;
38693;SDS011;24447;43.460;25.744;2023-06-26T07:25:22;17.70;;;7.28;;
38693;SDS011;24447;43.460;25.744;2023-06-26T07:27:48;20.58;;;6.55;;
38693;SDS011;24447;43.460;25.744;2023-06-26T07:30:14;17.17;;;7.43;;
38693;SDS011;24447;43.460;25.744;2023-06-26T07:32:40;17.63;;;5.72;;
38693;SDS011;24447;43.460;25.744;2023-06-26T07:35:07;17.40;;;5.93;;
38693;SDS011;24447;43.460;25.744;2023-06-26T07:37:33;16.88;;;6.97;;
38693;SDS011;24447;43.460;25.744;2023-06-26T07:39:59;15.18;;;5.65;;
38693;SDS011;24447;43.460;25.744;2023-06-26T07:42:25;16.23;;;5.93;;
38693;SDS011;24447;43.460;25.744;2023-06-26T07:44:50;15.43;;;6.30;;
38693;SDS011;24447;43.460;25.744;2023-06-26T07:47:16;14.07;;;6.57;;
38693;SDS011;24447;43.460;25.744;2023-06-26T07:49:42;13.27;;;5.85;;
38693;SDS011;24447;43.460;25.744;2023-06-26T07:52:08;15.73;;;5.85;;
38693;SDS011;24447;43.460;25.744;2023-06-26T07:54:37;15.52;;;5.65;;
38693;SDS011;24447;43.460;25.744;2023-06-26T07:57:04;19.38;;;5.68;;
38693;SDS011;24447;43.460;25.744;2023-06-26T07:59:37;20.58;;;5.72;;
38693;SDS011;24447;43.460;25.744;2023-06-26T08:02:03;11.68;;;6.25;;
38693;SDS011;24447;43.460;25.744;2023-06-26T08:04:30;11.30;;;5.18;;
38693;SDS011;24447;43.460;25.744;2023-06-26T08:06:57;10.00;;;4.70;;
38693;SDS011;24447;43.460;25.744;2023-06-26T08:09:25;11.25;;;5.55;;
38693;SDS011;24447;43.460;25.744;2023-06-26T08:11:52;12.25;;;5.90;;
38693;SDS011;24447;43.460;25.744;2023-06-26T08:14:18;15.20;;;5.45;;
38693;SDS011;24447;43.460;25.744;2023-06-26T08:16:44;13.43;;;5.25;;
38693;SDS011;24447;43.460;25.744;2023-06-26T08:19:14;11.15;;;5.13;;
38693;SDS011;24447;43.460;25.744;2023-06-26T08:21:40;12.48;;;5.18;;
38693;SDS011;24447;43.460;25.744;2023-06-26T08:24:06;16.63;;;4.97;;
38693;SDS011;24447;43.460;25.744;2023-06-26T08:26:33;14.80;;;5.93;;
38693;SDS011;24447;43.460;25.744;2023-06-26T08:28:59;11.23;;;5.13;;
38693;SDS011;24447;43.460;25.744;2023-06-26T08:31:25;9.40;;;4.10;;
38693;SDS011;24447;43.460;25.744;2023-06-26T08:33:51;16.40;;;6.40;;
38693;SDS011;24447;43.460;25.744;2023-06-26T08:36:17;10.98;;;4.65;;
38693;SDS011;24447;43.460;25.744;2023-06-26T08:38:43;8.00;;;3.85;;
38693;SDS011;24447;43.460;25.744;2023-06-26T08:41:09;14.23;;;5.68;;
38693;SDS011;24447;43.460;25.744;2023-06-26T08:43:35;19.55;;;6.18;;
38693;SDS011;24447;43.460;25.744;2023-06-26T08:46:01;12.35;;;4.68;;
38693;SDS011;24447;43.460;25.744;2023-06-26T08:48:29;19.33;;;5.40;;
38693;SDS011;24447;43.460;25.744;2023-06-26T08:51:04;14.50;;;5.05;;
38693;SDS011;24447;43.460;25.744;2023-06-26T08:56:31;10.10;;;4.60;;
38693;SDS011;24447;43.460;25.744;2023-06-26T08:59:01;10.52;;;4.43;;
38693;SDS011;24447;43.460;25.744;2023-06-26T09:01:27;10.18;;;4.63;;
38693;SDS011;24447;43.460;25.744;2023-06-26T09:03:53;10.80;;;4.25;;
38693;SDS011;24447;43.460;25.744;2023-06-26T09:06:19;15.43;;;4.40;;
38693;SDS011;24447;43.460;25.744;2023-06-26T09:08:45;11.35;;;4.93;;
38693;SDS011;24447;43.460;25.744;2023-06-26T09:11:11;8.65;;;3.92;;
38693;SDS011;24447;43.460;25.744;2023-06-26T09:13:37;14.18;;;4.90;;
38693;SDS011;24447;43.460;25.744;2023-06-26T09:16:08;7.35;;;4.43;;
38693;SDS011;24447;43.460;25.744;2023-06-26T09:18:34;9.60;;;4.50;;
38693;SDS011;24447;43.460;25.744;2023-06-26T09:21:05;20.17;;;5.05;;
38693;SDS011;24447;43.460;25.744;2023-06-26T09:23:32;8.07;;;4.22;;
38693;SDS011;24447;43.460;25.744;2023-06-26T09:26:01;17.10;;;4.90;;
38693;SDS011;24447;43.460;25.744;2023-06-26T09:28:29;9.10;;;4.43;;
38693;SDS011;24447;43.460;25.744;2023-06-26T09:31:00;11.77;;;4.35;;
38693;SDS011;24447;43.460;25.744;2023-06-26T09:33:28;7.47;;;4.07;;
38693;SDS011;24447;43.460;25.744;2023-06-26T09:36:00;12.75;;;4.70;;
38693;SDS011;24447;43.460;25.744;2023-06-26T09:38:26;11.27;;;4.50;;
38693;SDS011;24447;43.460;25.744;2023-06-26T09:40:53;10.52;;;4.57;;
38693;SDS011;24447;43.460;25.744;2023-06-26T09:43:19;8.82;;;4.22;;
38693;SDS011;24447;43.460;25.744;2023-06-26T09:45:45;8.10;;;3.92;;
38693;SDS011;24447;43.460;25.744;2023-06-26T09:48:14;8.00;;;4.10;;
38693;SDS011;24447;43.460;25.744;2023-06-26T09:50:42;10.13;;;3.97;;
38693;SDS011;24447;43.460;25.744;2023-06-26T09:53:08;11.77;;;4.43;;
38693;SDS011;24447;43.460;25.744;2023-06-26T09:55:35;7.78;;;4.28;;
38693;SDS011;24447;43.460;25.744;2023-06-26T09:58:05;8.88;;;3.65;;
38693;SDS011;24447;43.460;25.744;2023-06-26T10:00:31;9.85;;;3.85;;
38693;SDS011;24447;43.460;25.744;2023-06-26T10:03:01;10.93;;;4.38;;
38693;SDS011;24447;43.460;25.744;2023-06-26T10:05:27;10.15;;;3.72;;
38693;SDS011;24447;43.460;25.744;2023-06-26T10:07:53;9.60;;;4.53;;
38693;SDS011;24447;43.460;25.744;2023-06-26T10:10:20;10.40;;;4.05;;
38693;SDS011;24447;43.460;25.744;2023-06-26T10:12:50;15.60;;;5.30;;
38693;SDS011;24447;43.460;25.744;2023-06-26T10:15:22;8.80;;;4.68;;
38693;SDS011;24447;43.460;25.744;2023-06-26T10:17:49;14.43;;;4.38;;
38693;SDS011;24447;43.460;25.744;2023-06-26T10:20:15;7.88;;;3.88;;
38693;SDS011;24447;43.460;25.744;2023-06-26T10:22:44;10.02;;;4.15;;
38693;SDS011;24447;43.460;25.744;2023-06-26T10:25:12;10.07;;;4.45;;
38693;SDS011;24447;43.460;25.744;2023-06-26T10:27:41;11.05;;;4.38;;
38693;SDS011;24447;43.460;25.744;2023-06-26T10:30:11;11.70;;;4.20;;
38693;SDS011;24447;43.460;25.744;2023-06-26T10:32:38;10.70;;;3.92;;
38693;SDS011;24447;43.460;25.744;2023-06-26T10:35:06;12.40;;;4.18;;
38693;SDS011;24447;43.460;25.744;2023-06-26T10:37:48;10.90;;;4.53;;
38693;SDS011;24447;43.460;25.744;2023-06-26T10:40:21;10.85;;;4.03;;
38693;SDS011;24447;43.460;25.744;2023-06-26T10:42:48;17.05;;;5.32;;
38693;SDS011;24447;43.460;25.744;2023-06-26T10:45:19;12.18;;;4.47;;
38693;SDS011;24447;43.460;25.744;2023-06-26T10:47:46;10.30;;;4.10;;
38693;SDS011;24447;43.460;25.744;2023-06-26T10:55:51;12.45;;;4.72;;
38693;SDS011;24447;43.460;25.744;2023-06-26T10:58:41;14.73;;;4.78;;
38693;SDS011;24447;43.460;25.744;2023-06-26T11:03:40;16.92;;;6.07;;
38693;SDS011;24447;43.460;25.744;2023-06-26T11:06:14;19.38;;;5.65;;
38693;SDS011;24447;43.460;25.744;2023-06-26T11:08:46;20.13;;;5.93;;
38693;SDS011;24447;43.460;25.744;2023-06-26T11:11:13;22.60;;;6.90;;
38693;SDS011;24447;43.460;25.744;2023-06-26T11:13:41;14.02;;;6.10;;
38693;SDS011;24447;43.460;25.744;2023-06-26T11:16:07;17.27;;;6.13;;
38693;SDS011;24447;43.460;25.744;2023-06-26T11:18:33;22.02;;;8.13;;
38693;SDS011;24447;43.460;25.744;2023-06-26T11:21:09;18.35;;;7.15;;
38693;SDS011;24447;43.460;25.744;2023-06-26T11:23:38;19.20;;;7.20;;
38693;SDS011;24447;43.460;25.744;2023-06-26T11:26:17;16.30;;;7.13;;
38693;SDS011;24447;43.460;25.744;2023-06-26T11:28:47;18.33;;;7.10;;
38693;SDS011;24447;43.460;25.744;2023-06-26T11:31:32;17.15;;;6.80;;
38693;SDS011;24447;43.460;25.744;2023-06-26T11:34:00;20.92;;;6.70;;
38693;SDS011;24447;43.460;25.744;2023-06-26T11:36:29;16.35;;;6.32;;
38693;SDS011;24447;43.460;25.744;2023-06-26T11:38:56;23.45;;;8.10;;
38693;SDS011;24447;43.460;25.744;2023-06-26T11:41:24;19.58;;;7.70;;
38693;SDS011;24447;43.460;25.744;2023-06-26T11:43:52;25.13;;;9.55;;
38693;SDS011;24447;43.460;25.744;2023-06-26T11:46:22;20.23;;;8.10;;
38693;SDS011;24447;43.460;25.744;2023-06-26T11:48:48;22.17;;;8.70;;
38693;SDS011;24447;43.460;25.744;2023-06-26T11:51:15;23.15;;;8.48;;
38693;SDS011;24447;43.460;25.744;2023-06-26T11:53:41;23.20;;;7.63;;
38693;SDS011;24447;43.460;25.744;2023-06-26T11:56:12;19.30;;;7.88;;
38693;SDS011;24447;43.460;25.744;2023-06-26T11:59:00;19.50;;;8.20;;
38693;SDS011;24447;43.460;25.744;2023-06-26T12:01:38;22.33;;;9.15;;
38693;SDS011;24447;43.460;25.744;2023-06-26T12:04:06;21.70;;;9.52;;
38693;SDS011;24447;43.460;25.744;2023-06-26T12:06:36;23.17;;;9.85;;
38693;SDS011;24447;43.460;25.744;2023-06-26T12:09:05;24.42;;;9.45;;
38693;SDS011;24447;43.460;25.744;2023-06-26T12:11:34;20.92;;;10.40;;
38693;SDS011;24447;43.460;25.744;2023-06-26T12:14:00;19.52;;;9.18;;
38693;SDS011;24447;43.460;25.744;2023-06-26T12:16:27;21.33;;;9.60;;
38693;SDS011;24447;43.460;25.744;2023-06-26T12:19:01;17.92;;;8.02;;
38693;SDS011;24447;43.460;25.744;2023-06-26T12:21:43;20.05;;;7.78;;
38693;SDS011;24447;43.460;25.744;2023-06-26T12:24:15;17.92;;;8.48;;
38693;SDS011;24447;43.460;25.744;2023-06-26T12:26:43;19.08;;;8.30;;
38693;SDS011;24447;43.460;25.744;2023-06-26T12:29:11;18.08;;;7.78;;
38693;SDS011;24447;43.460;25.744;2023-06-26T12:31:51;19.88;;;8.68;;
38693;SDS011;24447;43.460;25.744;2023-06-26T12:34:21;24.63;;;9.53;;
38693;SDS011;24447;43.460;25.744;2023-06-26T12:36:52;15.80;;;7.35;;
38693;SDS011;24447;43.460;25.744;2023-06-26T12:39:21;18.83;;;7.90;;
38693;SDS011;24447;43.460;25.744;2023-06-26T12:41:48;18.48;;;9.23;;
38693;SDS011;24447;43.460;25.744;2023-06-26T12:46:53;18.50;;;8.48;;
38693;SDS011;24447;43.460;25.744;2023-06-26T12:49:56;18.73;;;7.90;;
38693;SDS011;24447;43.460;25.744;2023-06-26T12:52:16;19.00;;;8.43;;
38693;SDS011;24447;43.460;25.744;2023-06-26T12:54:44;16.42;;;7.78;;
38693;SDS011;24447;43.460;25.744;2023-06-26T12:57:12;14.65;;;7.30;;
38693;SDS011;24447;43.460;25.744;2023-06-26T12:59:41;15.57;;;7.70;;
38693;SDS011;24447;43.460;25.744;2023-06-26T13:02:07;14.43;;;6.75;;
38693;SDS011;24447;43.460;25.744;2023-06-26T13:04:34;15.85;;;6.60;;
38693;SDS011;24447;43.460;25.744;2023-06-26T13:07:00;16.42;;;7.88;;
38693;SDS011;24447;43.460;25.744;2023-06-26T13:09:26;16.30;;;6.72;;
38693;SDS011;24447;43.460;25.744;2023-06-26T13:11:52;17.65;;;7.55;;
38693;SDS011;24447;43.460;25.744;2023-06-26T13:14:18;18.05;;;6.90;;
38693;SDS011;24447;43.460;25.744;2023-06-26T13:16:44;15.45;;;7.03;;
38693;SDS011;24447;43.460;25.744;2023-06-26T13:19:10;10.82;;;5.63;;
38693;SDS011;24447;43.460;25.744;2023-06-26T13:21:36;16.55;;;6.40;;
38693;SDS011;24447;43.460;25.744;2023-06-26T13:24:02;13.35;;;6.47;;
38693;SDS011;24447;43.460;25.744;2023-06-26T13:26:29;13.90;;;6.97;;
38693;SDS011;24447;43.460;25.744;2023-06-26T13:28:55;15.43;;;7.30;;
38693;SDS011;24447;43.460;25.744;2023-06-26T13:31:21;20.65;;;7.78;;
38693;SDS011;24447;43.460;25.744;2023-06-26T13:33:47;15.68;;;6.88;;
38693;SDS011;24447;43.460;25.744;2023-06-26T13:36:17;16.38;;;6.25;;
38693;SDS011;24447;43.460;25.744;2023-06-26T13:38:43;17.58;;;7.38;;
38693;SDS011;24447;43.460;25.744;2023-06-26T13:41:10;16.63;;;7.63;;
38693;SDS011;24447;43.460;25.744;2023-06-26T13:43:36;14.35;;;7.13;;
38693;SDS011;24447;43.460;25.744;2023-06-26T13:46:02;13.38;;;6.47;;
38693;SDS011;24447;43.460;25.744;2023-06-26T13:48:28;13.85;;;6.70;;
38693;SDS011;24447;43.460;25.744;2023-06-26T13:50:54;16.85;;;7.22;;
38693;SDS011;24447;43.460;25.744;2023-06-26T13:53:21;15.32;;;6.82;;
38693;SDS011;24447;43.460;25.744;2023-06-26T13:55:47;20.15;;;7.18;;
38693;SDS011;24447;43.460;25.744;2023-06-26T13:58:13;17.00;;;7.10;;
38693;SDS011;24447;43.460;25.744;2023-06-26T14:00:39;14.63;;;7.68;;
38693;SDS011;24447;43.460;25.744;2023-06-26T14:03:06;15.43;;;6.95;;
38693;SDS011;24447;43.460;25.744;2023-06-26T14:05:36;15.38;;;7.10;;
38693;SDS011;24447;43.460;25.744;2023-06-26T14:08:03;16.42;;;7.00;;
38693;SDS011;24447;43.460;25.744;2023-06-26T14:10:30;15.77;;;6.57;;
38693;SDS011;24447;43.460;25.744;2023-06-26T14:12:58;19.67;;;7.25;;
38693;SDS011;24447;43.460;25.744;2023-06-26T14:15:24;12.10;;;5.97;;
38693;SDS011;24447;43.460;25.744;2023-06-26T14:17:50;14.82;;;6.30;;
38693;SDS011;24447;43.460;25.744;2023-06-26T14:20:17;11.23;;;5.53;;
38693;SDS011;24447;43.460;25.744;2023-06-26T14:22:47;15.15;;;5.85;;
38693;SDS011;24447;43.460;25.744;2023-06-26T14:25:13;13.02;;;5.43;;
38693;SDS011;24447;43.460;25.744;2023-06-26T14:27:39;11.75;;;5.95;;
38693;SDS011;24447;43.460;25.744;2023-06-26T14:30:05;8.93;;;5.28;;
38693;SDS011;24447;43.460;25.744;2023-06-26T14:32:32;11.73;;;5.88;;
38693;SDS011;24447;43.460;25.744;2023-06-26T14:34:59;13.32;;;5.65;;
38693;SDS011;24447;43.460;25.744;2023-06-26T14:37:25;11.13;;;6.13;;
38693;SDS011;24447;43.460;25.744;2023-06-26T14:39:52;13.18;;;6.60;;
38693;SDS011;24447;43.460;25.744;2023-06-26T14:42:17;13.93;;;6.40;;
38693;SDS011;24447;43.460;25.744;2023-06-26T14:44:43;13.18;;;5.30;;
38693;SDS011;24447;43.460;25.744;2023-06-26T14:47:12;16.08;;;5.50;;
38693;SDS011;24447;43.460;25.744;2023-06-26T14:49:39;9.30;;;4.68;;